Time;durP1;ratioP1;P1;durP2;ratioP2;P2;SDS_P1;SDS_P2;PMS_P1;PMS_P2;Temp;Humidity;BMP_temperature;BMP_pressure;BME280_temperature;BME280_humidity;BME280_pressure;Samples;Min_cycle;Max_cycle;Signal;HPM_P1;HPM_P2
2023/10/10 05:35:33;;;;;;;;;;;;;;;1.09;78.70;100479.14;110028;1270;22475;-49
2023/10/10 05:38:00;;;;;;;;;;;;;;;1.02;78.47;100484.58;109866;1272;22613;-48
2023/10/10 05:40:27;;;;;;;;;;;;;;;0.99;79.33;100489.45;109873;1271;22444;-43
2023/10/10 05:42:57;;;;;;;;;;;;;;;1.04;79.71;100497.02;109897;1272;22476;-41
2023/10/10 05:45:23;;;;;;;;;;;;;;;1.13;80.02;100498.25;109887;1275;22440;-42
2023/10/10 05:47:50;;;;;;;;;;;;;;;1.22;80.13;100507.71;109825;1263;22555;-44
2023/10/10 05:50:19;;;;;;;;;;;;;;;1.30;80.48;100511.29;109807;1269;22451;-42
2023/10/10 05:52:46;;;;;;;;;;;;;;;1.41;80.68;100513.12;109893;1275;22418;-47
2023/10/10 05:55:12;;;;;;;;;;;;;;;1.56;80.83;100514.23;109677;1276;22429;-48
2023/10/10 05:57:40;;;;;;;;;;;;;;;1.71;80.98;100510.34;109973;1276;23333;-47
2023/10/10 06:00:10;;;;;;;;;;;;;;;1.85;80.97;100503.83;109893;1266;23007;-47
2023/10/10 06:02:43;;;;;;;;;;;;;;;2.02;80.87;100506.53;109784;1272;22471;-47
2023/10/10 06:05:10;;;;;;;;;;;;;;;2.20;80.90;100511.50;109713;1270;22660;-42
2023/10/10 06:07:44;;;;;;;;;;;;;;;2.35;81.02;100510.52;109805;1271;22514;-47
2023/10/10 06:10:15;;;;;;;;;;;;;;;2.51;80.99;100511.98;109849;1271;22470;-48
2023/10/10 06:12:42;;;;;;;;;;;;;;;2.68;80.92;100517.39;109954;1276;22910;-47
2023/10/10 06:15:10;;;;;;;;;;;;;;;2.84;80.93;100517.79;109894;1276;22461;-47
2023/10/10 06:17:41;;;;;;;;;;;;;;;3.02;81.10;100511.83;109855;1267;23144;-47
2023/10/10 06:20:18;;;;;;;;;;;;;;;3.21;80.70;100517.30;109857;1276;22586;-48
2023/10/10 06:22:46;;;;;;;;;;;;;;;3.41;80.69;100511.25;109716;1276;22972;-52
2023/10/10 06:25:19;;;;;;;;;;;;;;;3.62;80.39;100509.98;109414;1278;22524;-42
2023/10/10 06:27:54;;;;;;;;;;;;;;;3.82;80.29;100512.16;109704;1276;22497;-40
2023/10/10 06:30:21;;;;;;;;;;;;;;;3.98;79.93;100506.43;109656;1275;22534;-47
2023/10/10 06:32:47;;;;;;;;;;;;;;;4.12;79.34;100499.95;109774;1267;22557;-42
2023/10/10 06:37:54;;;;;;;;;;;;;;;4.33;79.22;100496.23;109820;1276;22607;-41
2023/10/10 06:40:30;;;;;;;;;;;;;;;4.48;78.86;100502.37;109855;1273;22592;-48
2023/10/10 06:42:57;;;;;;;;;;;;;;;4.62;79.06;100507.58;109882;1273;23675;-48
2023/10/10 06:45:34;;;;;;;;;;;;;;;4.77;78.71;100506.09;109963;1257;22483;-46
2023/10/10 06:48:01;;;;;;;;;;;;;;;4.90;77.96;100505.38;110011;1270;22980;-41
2023/10/10 06:50:31;;;;;;;;;;;;;;;5.05;78.17;100510.10;109795;1271;22553;-42
2023/10/10 06:53:00;;;;;;;;;;;;;;;5.25;77.71;100506.81;110022;1270;23251;-47
2023/10/10 06:55:36;;;;;;;;;;;;;;;5.42;77.43;100508.77;109976;1273;22632;-43
2023/10/10 06:58:05;;;;;;;;;;;;;;;5.61;77.07;100504.38;110080;1273;22424;-42
2023/10/10 07:00:45;;;;;;;;;;;;;;;5.78;76.83;100500.46;110023;1273;22552;-41
2023/10/10 07:03:18;;;;;;;;;;;;;;;5.96;76.88;100503.31;109841;1264;23022;-42
2023/10/10 07:05:45;;;;;;;;;;;;;;;6.15;76.68;100500.42;109940;1272;22511;-41
2023/10/10 07:08:12;;;;;;;;;;;;;;;6.32;76.23;100502.84;109899;1269;23397;-42
2023/10/10 07:10:42;;;;;;;;;;;;;;;6.45;75.50;100503.83;109952;1273;22519;-42
2023/10/10 07:13:14;;;;;;;;;;;;;;;6.58;74.42;100505.46;109843;1273;23761;-46
2023/10/10 07:15:50;;;;;;;;;;;;;;;6.72;74.29;100505.04;109712;1268;22604;-41
2023/10/10 07:18:24;;;;;;;;;;;;;;;6.88;73.36;100503.07;109715;1274;23720;-47
2023/10/10 07:23:37;;;;;;;;;;;;;;;7.13;72.45;100507.17;109734;1264;22477;-48
2023/10/10 07:26:05;;;;;;;;;;;;;;;7.23;71.51;100505.09;109623;1272;156387;-48
2023/10/10 07:28:48;;;;;;;;;;;;;;;7.35;71.16;100508.58;109863;1272;22448;-47
2023/10/10 07:31:17;;;;;;;;;;;;;;;7.52;70.45;100500.52;109871;1278;22457;-48
2023/10/10 07:33:54;;;;;;;;;;;;;;;7.65;69.54;100503.33;109815;1263;22539;-47
2023/10/10 07:36:24;;;;;;;;;;;;;;;7.76;68.58;100502.95;109867;1267;22552;-47
2023/10/10 07:38:54;;;;;;;;;;;;;;;7.87;68.12;100503.14;109922;1267;23568;-48
2023/10/10 07:41:24;;;;;;;;;;;;;;;8.00;67.51;100501.74;109856;1273;22476;-41
2023/10/10 07:43:52;;;;;;;;;;;;;;;8.10;66.88;100497.54;109996;1272;22492;-41
2023/10/10 07:46:22;;;;;;;;;;;;;;;8.18;65.66;100496.94;109913;1269;22564;-47
2023/10/10 07:48:54;;;;;;;;;;;;;;;8.30;64.84;100491.00;109694;1270;23432;-46
2023/10/10 07:51:28;;;;;;;;;;;;;;;8.44;63.22;100492.26;109687;1264;22536;-47
2023/10/10 07:54:28;;;;;;;;;;;;;;;8.60;62.59;100492.09;109550;1274;22508;-42
2023/10/10 07:57:07;;;;;;;;;;;;;;;8.72;60.43;100494.14;109705;1273;22556;-41
2023/10/10 07:59:36;;;;;;;;;;;;;;;8.75;59.53;100495.73;109961;1271;22957;-41
2023/10/10 08:05:13;;;;;;;;;;;;;;;8.77;57.79;100488.62;109335;1276;22499;-42
2023/10/10 08:07:39;;;;;;;;;;;;;;;8.76;58.28;100490.70;109041;1279;23004;-42
2023/10/10 08:12:52;;;;;;;;;;;;;;;8.97;58.09;100489.70;109184;1284;22471;-42
2023/10/10 08:15:24;;;;;;;;;;;;;;;9.05;57.15;100494.99;109207;1282;23463;-42
2023/10/10 08:17:52;;;;;;;;;;;;;;;9.11;56.57;100490.52;109259;1274;22493;-42
2023/10/10 08:23:09;;;;;;;;;;;;;;;9.26;55.42;100485.60;109232;1277;23295;-42
2023/10/10 08:25:38;;;;;;;;;;;;;;;9.33;55.39;100484.45;109402;1277;22441;-42
2023/10/10 08:28:06;;;;;;;;;;;;;;;9.42;55.12;100478.41;109166;1280;22467;-42
2023/10/10 08:30:33;;;;;;;;;;;;;;;9.48;54.47;100473.59;109300;1284;23448;-47
2023/10/10 08:33:00;;;;;;;;;;;;;;;9.52;54.35;100474.84;109190;1276;22821;-47
2023/10/10 08:35:30;;;;;;;;;;;;;;;9.54;54.50;100474.85;109303;1279;22485;-47
2023/10/10 08:37:57;;;;;;;;;;;;;;;9.53;54.37;100477.80;109328;1277;23381;-42
2023/10/10 08:40:26;;;;;;;;;;;;;;;9.53;53.52;100480.23;109385;1276;23734;-41
2023/10/10 08:42:53;;;;;;;;;;;;;;;9.46;53.59;100478.45;109794;1272;22455;-42
2023/10/10 08:45:22;;;;;;;;;;;;;;;9.45;53.02;100474.61;110011;1269;22452;-47
2023/10/10 08:47:58;;;;;;;;;;;;;;;9.47;52.73;100471.84;109981;1267;22508;-42
2023/10/10 08:50:26;;;;;;;;;;;;;;;9.52;51.76;100465.77;109902;1276;22523;-42
2023/10/10 08:52:53;;;;;;;;;;;;;;;9.61;50.49;100474.55;109874;1272;22605;-47
2023/10/10 08:55:26;;;;;;;;;;;;;;;9.68;48.96;100470.59;110016;1270;23180;-47
2023/10/10 08:57:53;;;;;;;;;;;;;;;9.78;49.11;100476.57;109994;1274;22481;-47
2023/10/10 09:00:19;;;;;;;;;;;;;;;9.89;47.49;100477.85;110000;1272;22446;-48
2023/10/10 09:02:48;;;;;;;;;;;;;;;9.91;47.18;100467.23;109910;1273;23687;-41
2023/10/10 09:05:16;;;;;;;;;;;;;;;9.94;45.47;100474.92;109817;1278;22458;-41
2023/10/10 09:07:43;;;;;;;;;;;;;;;9.90;45.49;100481.17;109758;1270;23345;-42
2023/10/10 09:10:16;;;;;;;;;;;;;;;9.82;45.71;100480.25;109943;1267;22419;-43
2023/10/10 09:12:53;;;;;;;;;;;;;;;9.76;46.77;100482.31;109733;1273;22545;-47
2023/10/10 09:15:21;;;;;;;;;;;;;;;9.81;46.39;100475.55;109947;1269;22487;-43
2023/10/10 09:17:48;;;;;;;;;;;;;;;9.86;46.58;100474.35;109845;1272;22616;-48
2023/10/10 09:20:28;;;;;;;;;;;;;;;9.96;46.58;100467.10;109870;1266;22527;-42
2023/10/10 09:23:11;;;;;;;;;;;;;;;9.98;46.07;100467.45;109472;1273;22532;-43
2023/10/10 09:25:48;;;;;;;;;;;;;;;9.91;45.55;100454.88;109538;1274;22633;-49
2023/10/10 09:28:19;;;;;;;;;;;;;;;9.85;45.68;100454.66;109543;1273;22518;-42
2023/10/10 09:30:58;;;;;;;;;;;;;;;9.81;45.91;100456.23;109602;1264;24302;-49
2023/10/10 09:33:34;;;;;;;;;;;;;;;9.79;46.45;100455.50;109624;1278;23027;-47
2023/10/10 09:36:15;;;;;;;;;;;;;;;9.75;46.75;100447.83;109748;1273;22577;-42
2023/10/10 09:38:48;;;;;;;;;;;;;;;9.83;47.29;100454.48;109623;1273;22589;-48
2023/10/10 09:50:00;;;;;;;;;;;;;;;10.33;46.47;100439.04;109783;1273;22472;-48
2023/10/10 10:06:04;;;;;;;;;;;;;;;11.53;40.23;100411.02;110011;1272;22485;-42
2023/10/10 10:08:44;;;;;;;;;;;;;;;11.82;39.72;100420.75;109876;1278;22526;-44
2023/10/10 10:11:19;;;;;;;;;;;;;;;12.26;38.19;100399.42;109840;1259;23391;-47
2023/10/10 10:14:12;;;;;;;;;;;;;;;12.77;37.28;100405.40;109879;1265;23345;-43
2023/10/10 10:16:47;;;;;;;;;;;;;;;13.32;36.47;100393.94;109881;1260;22500;-43
2023/10/10 10:19:19;;;;;;;;;;;;;;;13.68;34.40;100391.64;109923;1272;23318;-47
2023/10/10 10:22:06;;;;;;;;;;;;;;;13.91;33.93;100391.21;109943;1275;22465;-47
2023/10/10 10:24:50;;;;;;;;;;;;;;;14.12;33.61;100387.08;109946;1268;22688;-43
2023/10/10 10:27:39;;;;;;;;;;;;;;;14.36;33.25;100382.37;109953;1273;22577;-47
2023/10/10 10:30:18;;;;;;;;;;;;;;;14.72;32.31;100387.66;109934;1273;23219;-48
2023/10/10 10:32:51;;;;;;;;;;;;;;;15.02;31.53;100389.98;109699;1269;22905;-47
2023/10/10 10:35:36;;;;;;;;;;;;;;;15.28;30.88;100392.71;109890;1272;22451;-42
2023/10/10 10:38:05;;;;;;;;;;;;;;;15.47;30.10;100396.41;110016;1269;22465;-42
2023/10/10 10:43:14;;;;;;;;;;;;;;;15.62;30.52;100397.72;109772;1273;22845;-42
2023/10/10 10:46:11;;;;;;;;;;;;;;;15.65;30.58;100394.34;109775;1271;22483;-47
2023/10/10 10:48:41;;;;;;;;;;;;;;;15.47;30.46;100391.48;109369;1272;23895;-46
2023/10/10 10:53:58;;;;;;;;;;;;;;;15.13;31.15;100382.60;109959;1265;23172;-43
2023/10/10 10:59:19;;;;;;;;;;;;;;;14.82;31.60;100375.92;109977;1267;22926;-42
2023/10/10 11:01:51;;;;;;;;;;;;;;;14.56;32.22;100377.90;110057;1268;22470;-41
2023/10/10 11:04:25;;;;;;;;;;;;;;;14.33;32.03;100375.90;109848;1268;22997;-41
2023/10/10 11:06:59;;;;;;;;;;;;;;;14.13;32.22;100374.79;110009;1272;22455;-46
2023/10/10 11:09:39;;;;;;;;;;;;;;;14.08;32.41;100376.08;109788;1274;22499;-42
2023/10/10 11:12:08;;;;;;;;;;;;;;;14.12;32.60;100372.36;109912;1268;23217;-41
2023/10/10 11:14:45;;;;;;;;;;;;;;;14.18;32.41;100369.47;109863;1274;22557;-42
2023/10/10 11:17:17;;;;;;;;;;;;;;;14.11;31.89;100376.76;109888;1272;23028;-47
2023/10/10 11:19:46;;;;;;;;;;;;;;;13.81;31.55;100377.83;109920;1272;22855;-46
2023/10/10 11:25:05;;;;;;;;;;;;;;;13.08;32.51;100388.19;109974;1271;23047;-46
2023/10/10 11:27:35;;;;;;;;;;;;;;;12.81;33.24;100394.17;109961;1272;23266;-42
2023/10/10 11:30:08;;;;;;;;;;;;;;;12.66;33.31;100397.96;110017;1269;22454;-44
2023/10/10 11:32:45;;;;;;;;;;;;;;;12.47;33.64;100391.09;110034;1273;22470;-46
2023/10/10 11:35:26;;;;;;;;;;;;;;;12.38;34.18;100392.90;110051;1265;22468;-45
2023/10/10 11:38:16;;;;;;;;;;;;;;;12.38;34.23;100394.29;110026;1265;22473;-46
2023/10/10 11:40:44;;;;;;;;;;;;;;;12.42;34.27;100395.50;109975;1272;22438;-46
2023/10/10 11:43:17;;;;;;;;;;;;;;;12.41;34.08;100396.73;109841;1275;22462;-46
2023/10/10 11:45:51;;;;;;;;;;;;;;;12.33;34.57;100396.08;109998;1272;23266;-46
2023/10/10 11:48:18;;;;;;;;;;;;;;;12.27;34.92;100397.49;110033;1272;25216;-48
2023/10/10 11:50:49;;;;;;;;;;;;;;;12.22;34.69;100399.80;109863;1273;23070;-48
2023/10/10 11:53:19;;;;;;;;;;;;;;;12.21;34.91;100396.30;110043;1271;23313;-43
2023/10/10 11:55:47;;;;;;;;;;;;;;;12.29;34.96;100397.84;109769;1272;22529;-42
2023/10/10 11:58:18;;;;;;;;;;;;;;;12.31;34.97;100393.29;109739;1265;23018;-42
2023/10/10 12:01:03;;;;;;;;;;;;;;;12.37;34.33;100400.61;109700;1262;23396;-47
2023/10/10 12:03:51;;;;;;;;;;;;;;;12.34;34.00;100400.61;109901;1271;22977;-47
2023/10/10 12:06:26;;;;;;;;;;;;;;;12.32;34.26;100397.65;109921;1272;22514;-48
2023/10/10 12:08:53;;;;;;;;;;;;;;;12.40;34.53;100389.55;110037;1263;23370;-47
2023/10/10 12:11:21;;;;;;;;;;;;;;;12.48;34.17;100394.23;109886;1273;22458;-44
2023/10/10 12:13:50;;;;;;;;;;;;;;;12.39;34.18;100397.26;109957;1267;22529;-46
2023/10/10 12:16:23;;;;;;;;;;;;;;;12.24;34.30;100398.74;109741;1273;23569;-41
2023/10/10 12:18:50;;;;;;;;;;;;;;;12.08;34.51;100395.85;109967;1272;22468;-46
2023/10/10 12:21:20;;;;;;;;;;;;;;;11.94;34.69;100405.17;110011;1275;23225;-47
2023/10/10 12:23:47;;;;;;;;;;;;;;;11.80;34.86;100402.92;109954;1268;22477;-47
2023/10/10 12:26:14;;;;;;;;;;;;;;;11.71;35.05;100402.41;109968;1268;23311;-46
2023/10/10 12:28:43;;;;;;;;;;;;;;;11.64;35.11;100411.35;109966;1269;22543;-42
2023/10/10 12:31:15;;;;;;;;;;;;;;;11.58;35.29;100412.41;110057;1269;23197;-47
2023/10/10 12:33:48;;;;;;;;;;;;;;;11.53;35.58;100408.40;110093;1265;23087;-46
2023/10/10 12:36:17;;;;;;;;;;;;;;;11.49;36.00;100418.73;110047;1260;22511;-43
2023/10/10 12:38:44;;;;;;;;;;;;;;;11.46;36.03;100416.27;110078;1272;22441;-47
2023/10/10 12:41:11;;;;;;;;;;;;;;;11.44;36.25;100421.70;110017;1271;23198;-41
2023/10/10 12:43:38;;;;;;;;;;;;;;;11.41;36.28;100427.11;110114;1272;23241;-41
2023/10/10 12:46:07;;;;;;;;;;;;;;;11.36;36.48;100422.58;110013;1267;23280;-46
2023/10/10 12:48:39;;;;;;;;;;;;;;;11.33;36.06;100422.05;110131;1272;22464;-47
2023/10/10 12:51:09;;;;;;;;;;;;;;;11.33;36.12;100424.86;110125;1265;22533;-47
2023/10/10 12:53:39;;;;;;;;;;;;;;;11.35;36.29;100421.70;110064;1271;22496;-44
2023/10/10 12:56:06;;;;;;;;;;;;;;;11.40;36.16;100421.34;109976;1256;23228;-42
2023/10/10 12:58:32;;;;;;;;;;;;;;;11.46;36.46;100419.95;110128;1267;23211;-42
2023/10/10 13:00:59;;;;;;;;;;;;;;;11.55;36.52;100419.23;110068;1272;22495;-48
2023/10/10 13:03:29;;;;;;;;;;;;;;;11.63;36.83;100417.48;110066;1271;23257;-48
2023/10/10 13:06:00;;;;;;;;;;;;;;;11.67;36.30;100419.73;110104;1272;22449;-48
2023/10/10 13:08:47;;;;;;;;;;;;;;;11.68;36.09;100415.00;110105;1268;22543;-46
2023/10/10 13:11:30;;;;;;;;;;;;;;;11.71;35.97;100417.44;110124;1272;22458;-47
2023/10/10 13:14:08;;;;;;;;;;;;;;;11.72;36.01;100415.52;110102;1272;22477;-43
2023/10/10 13:19:11;;;;;;;;;;;;;;;11.63;35.64;100424.63;110107;1272;22635;-48
2023/10/10 13:21:39;;;;;;;;;;;;;;;11.63;35.89;100421.48;110147;1276;22487;-44
2023/10/10 13:24:13;;;;;;;;;;;;;;;11.68;35.77;100422.17;110119;1267;22514;-47
2023/10/10 13:26:41;;;;;;;;;;;;;;;11.63;36.16;100426.90;110046;1277;23768;-48
2023/10/10 13:29:08;;;;;;;;;;;;;;;11.49;36.36;100431.47;110182;1278;22503;-43
2023/10/10 13:31:37;;;;;;;;;;;;;;;11.37;36.54;100432.70;110153;1265;22519;-43
2023/10/10 13:34:04;;;;;;;;;;;;;;;11.29;37.31;100437.25;110142;1267;23283;-47
2023/10/10 13:36:34;;;;;;;;;;;;;;;11.23;37.32;100440.23;109926;1278;22519;-47
2023/10/10 13:39:05;;;;;;;;;;;;;;;11.16;37.64;100438.48;110131;1267;22495;-44
2023/10/10 13:41:35;;;;;;;;;;;;;;;11.13;37.83;100438.30;110096;1267;22932;-48
2023/10/10 13:44:03;;;;;;;;;;;;;;;11.15;38.18;100438.30;110070;1272;22503;-47
2023/10/10 13:46:32;;;;;;;;;;;;;;;11.20;37.79;100443.73;110112;1267;22521;-47
2023/10/10 13:48:59;;;;;;;;;;;;;;;11.27;37.80;100443.02;110088;1268;22491;-47
2023/10/10 13:51:28;;;;;;;;;;;;;;;11.51;37.76;100438.45;110152;1266;23181;-43
2023/10/10 13:53:57;;;;;;;;;;;;;;;11.84;37.45;100439.27;110222;1266;22419;-43
2023/10/10 13:56:30;;;;;;;;;;;;;;;12.09;37.13;100441.81;110107;1267;22549;-44
2023/10/10 13:58:58;;;;;;;;;;;;;;;12.20;36.40;100441.95;109989;1264;22511;-43
2023/10/10 14:01:36;;;;;;;;;;;;;;;12.07;36.39;100443.76;110066;1266;22617;-43
2023/10/10 14:04:23;;;;;;;;;;;;;;;11.86;36.96;100449.59;110126;1270;22999;-47
2023/10/10 14:06:53;;;;;;;;;;;;;;;11.63;37.45;100455.02;110074;1278;22562;-47
2023/10/10 14:09:24;;;;;;;;;;;;;;;11.53;37.94;100460.10;110112;1272;22471;-42
2023/10/10 14:11:52;;;;;;;;;;;;;;;11.46;38.02;100462.91;110144;1269;22467;-44
2023/10/10 14:14:18;;;;;;;;;;;;;;;11.37;38.32;100464.48;110125;1270;22443;-47
2023/10/10 14:16:45;;;;;;;;;;;;;;;11.31;38.50;100468.52;110108;1278;23280;-42
2023/10/10 14:19:12;;;;;;;;;;;;;;;11.31;38.89;100470.26;110153;1259;22492;-47
